createdAt,value
2023-04-05T00:02:21.255Z,5.97
2023-04-05T00:04:57.865Z,5.96
2023-04-05T00:07:30.243Z,5.96
2023-04-05T00:10:02.916Z,5.97
2023-04-05T00:12:35.398Z,5.97
2023-04-05T00:15:09.523Z,6.00
2023-04-05T00:17:42.453Z,5.99
2023-04-05T00:20:16.092Z,5.91
2023-04-05T00:22:50.908Z,6.00
2023-04-05T00:25:23.362Z,6.01
2023-04-05T00:27:55.887Z,6.01
2023-04-05T00:30:29.286Z,6.03
2023-04-05T00:33:02.123Z,6.06
2023-04-05T00:35:34.764Z,5.98
2023-04-05T00:38:07.161Z,6.06
2023-04-05T00:40:40.780Z,6.10
2023-04-05T00:43:13.588Z,6.15
2023-04-05T00:45:46.161Z,6.09
2023-04-05T00:48:18.822Z,6.06
2023-04-05T00:50:52.261Z,6.06
2023-04-05T00:53:24.728Z,6.06
2023-04-05T00:55:58.601Z,6.07
2023-04-05T00:58:32.038Z,6.05
2023-04-05T01:01:14.124Z,5.94
2023-04-05T01:03:53.815Z,6.02
2023-04-05T01:06:38.413Z,6.03
2023-04-05T01:09:26.559Z,6.00
2023-04-05T01:12:04.049Z,5.97
2023-04-05T01:14:47.091Z,5.94
2023-04-05T01:17:22.563Z,5.91
2023-04-05T01:19:59.541Z,5.86
2023-04-05T01:23:15.791Z,5.82
2023-04-05T01:25:58.883Z,5.79
2023-04-05T01:29:11.444Z,5.74
2023-04-05T01:31:51.579Z,5.68
2023-04-05T01:34:35.061Z,5.64
2023-04-05T01:37:13.528Z,5.59
2023-04-05T01:39:47.526Z,5.55
2023-04-05T01:42:26.262Z,5.51
2023-04-05T01:44:59.937Z,5.48
2023-04-05T01:47:32.526Z,5.45
2023-04-05T01:50:05.163Z,5.46
2023-04-05T01:52:37.733Z,5.46
2023-04-05T01:55:11.390Z,5.46
2023-04-05T01:57:43.856Z,5.43
2023-04-05T02:00:19.428Z,5.44
2023-04-05T02:02:52.068Z,5.49
2023-04-05T02:05:24.601Z,5.50
2023-04-05T02:07:57.645Z,5.44
2023-04-05T02:10:29.986Z,5.51
2023-04-05T02:13:02.486Z,5.54
2023-04-05T02:15:35.836Z,5.51
2023-04-05T02:18:09.583Z,5.50
2023-04-05T02:20:42.222Z,5.48
2023-04-05T02:23:14.775Z,5.44
2023-04-05T02:25:47.317Z,5.40
2023-04-05T02:28:19.658Z,5.37
2023-04-05T02:30:52.627Z,5.33
2023-04-05T02:33:25.081Z,5.28
2023-04-05T02:35:58.117Z,5.21
2023-04-05T02:38:31.038Z,5.20
2023-04-05T02:41:03.505Z,5.18
2023-04-05T02:43:36.490Z,5.15
2023-04-05T02:46:09.185Z,5.14
2023-04-05T02:48:44.650Z,5.13
2023-04-05T02:51:17.942Z,5.07
2023-04-05T02:53:50.654Z,5.05
2023-04-05T02:56:23.361Z,5.02
2023-04-05T02:58:56.714Z,4.97
2023-04-05T03:01:32.634Z,4.95
2023-04-05T03:04:06.054Z,4.95
2023-04-05T03:06:38.710Z,4.93
2023-04-05T03:09:12.135Z,4.94
2023-04-05T03:11:44.641Z,4.86
2023-04-05T03:14:17.393Z,4.87
2023-04-05T03:16:51.463Z,4.81
2023-04-05T03:19:28.189Z,4.74
2023-04-05T03:22:05.743Z,4.70
2023-04-05T03:24:39.735Z,4.83
2023-04-05T03:27:15.082Z,4.81
2023-04-05T03:30:09.995Z,4.80
2023-04-05T03:32:47.136Z,4.77
2023-04-05T03:35:29.102Z,4.76
2023-04-05T03:38:01.934Z,4.73
2023-04-05T03:40:34.916Z,4.72
2023-04-05T03:43:07.779Z,4.76
2023-04-05T03:45:40.663Z,4.77
2023-04-05T03:48:13.634Z,4.75
2023-04-05T03:50:47.107Z,4.76
2023-04-05T03:53:19.706Z,4.77
2023-04-05T03:55:55.860Z,4.82
2023-04-05T03:58:53.842Z,4.73
2023-04-05T04:01:30.760Z,4.83
2023-04-05T04:04:05.190Z,4.76
2023-04-05T04:06:38.457Z,4.87
2023-04-05T04:09:11.281Z,4.88
2023-04-05T04:11:44.601Z,4.86
2023-04-05T04:14:18.794Z,4.90
2023-04-05T04:17:03.488Z,4.91
2023-04-05T04:19:57.045Z,4.93
2023-04-05T04:23:10.385Z,4.95
2023-04-05T04:26:01.854Z,4.94
2023-04-05T04:28:49.408Z,4.96
2023-04-05T04:31:46.073Z,4.96
2023-04-05T04:34:30.822Z,4.96
2023-04-05T04:37:32.557Z,4.94
2023-04-05T04:40:25.780Z,4.93
2023-04-05T04:43:18.490Z,4.94
2023-04-05T04:46:11.939Z,4.94
2023-04-05T04:48:59.920Z,4.93
2023-04-05T04:51:40.335Z,4.95
2023-04-05T04:54:13.567Z,4.96
2023-04-05T04:56:46.853Z,4.99
2023-04-05T04:59:19.415Z,4.96
2023-04-05T05:01:51.502Z,4.96
2023-04-05T05:04:23.856Z,4.98
2023-04-05T05:06:56.894Z,5.00
2023-04-05T05:09:29.616Z,5.03
2023-04-05T05:12:04.125Z,4.96
2023-04-05T05:14:36.884Z,4.92
2023-04-05T05:17:09.475Z,5.00
2023-04-05T05:19:42.257Z,4.86
2023-04-05T05:22:14.495Z,5.06
2023-04-05T05:24:48.313Z,5.03
2023-04-05T05:27:21.694Z,5.05
2023-04-05T05:29:54.483Z,5.12
2023-04-05T05:32:26.785Z,5.14
2023-04-05T05:35:00.052Z,5.12
2023-04-05T05:37:35.297Z,5.20
2023-04-05T05:40:10.006Z,5.20
2023-04-05T05:42:42.332Z,5.27
2023-04-05T05:45:15.617Z,5.29
2023-04-05T05:47:48.288Z,5.34
2023-04-05T05:50:21.711Z,5.39
2023-04-05T05:52:54.791Z,5.31
2023-04-05T05:55:27.352Z,5.33
2023-04-05T05:58:00.138Z,5.27
2023-04-05T06:00:32.617Z,5.34
2023-04-05T06:03:06.060Z,5.38
2023-04-05T06:05:38.762Z,5.41
2023-04-05T06:08:12.148Z,5.47
2023-04-05T06:10:44.705Z,5.55
2023-04-05T06:13:17.373Z,5.52
2023-04-05T06:15:50.179Z,5.51
2023-04-05T06:18:22.726Z,5.43
2023-04-05T06:20:56.021Z,5.47
2023-04-05T06:23:29.100Z,5.51
2023-04-05T06:26:01.800Z,5.53
2023-04-05T06:28:34.021Z,5.57
2023-04-05T06:31:06.682Z,5.63
2023-04-05T06:33:39.196Z,5.68
2023-04-05T06:36:12.302Z,5.69
2023-04-05T06:38:44.815Z,5.69
2023-04-05T06:41:17.424Z,5.66
2023-04-05T06:43:50.196Z,5.65
2023-04-05T06:46:22.605Z,5.70
2023-04-05T06:48:55.256Z,5.74
2023-04-05T06:51:28.996Z,5.76
2023-04-05T06:54:01.822Z,5.85
2023-04-05T06:56:34.287Z,5.78
2023-04-05T06:59:06.748Z,5.81
2023-04-05T07:01:42.536Z,5.90
2023-04-05T07:04:15.166Z,5.95
2023-04-05T07:06:47.721Z,5.92
2023-04-05T07:09:20.794Z,5.96
2023-04-05T07:11:53.468Z,6.06
2023-04-05T07:14:26.225Z,6.07
2023-04-05T07:16:58.945Z,6.12
2023-04-05T07:19:31.147Z,6.13
2023-04-05T07:22:03.502Z,6.19
2023-04-05T07:24:36.849Z,6.34
2023-04-05T07:27:09.373Z,6.51
2023-04-05T07:29:44.584Z,6.53
2023-04-05T07:32:18.665Z,6.52
2023-04-05T07:34:51.396Z,6.63
2023-04-05T07:37:23.760Z,6.63
2023-04-05T07:39:58.548Z,6.71
2023-04-05T07:42:32.156Z,6.72
2023-04-05T07:45:04.673Z,6.71
2023-04-05T07:47:37.424Z,6.73
2023-04-05T07:50:14.988Z,6.72
2023-04-05T07:52:47.544Z,6.74
2023-04-05T07:55:20.055Z,6.76
2023-04-05T07:57:52.573Z,6.75
2023-04-05T08:00:25.873Z,6.81
2023-04-05T08:03:01.837Z,6.78
2023-04-05T08:05:35.240Z,6.77
2023-04-05T08:08:11.128Z,6.88
2023-04-05T08:10:43.811Z,6.93
2023-04-05T08:13:16.442Z,6.95
2023-04-05T08:15:48.865Z,6.88
2023-04-05T08:18:21.619Z,6.96
2023-04-05T08:20:56.916Z,7.03
2023-04-05T08:23:29.404Z,7.10
2023-04-05T08:26:01.904Z,7.07
2023-04-05T08:28:34.745Z,7.19
2023-04-05T08:31:07.228Z,7.25
2023-04-05T08:33:39.417Z,7.12
2023-04-05T08:36:12.841Z,7.21
2023-04-05T08:38:44.920Z,7.25
2023-04-05T08:41:21.075Z,7.38
2023-04-05T08:43:59.245Z,7.51
2023-04-05T08:46:33.473Z,7.61
2023-04-05T08:49:09.326Z,7.70
2023-04-05T08:51:41.943Z,7.68
2023-04-05T08:54:14.617Z,7.82
2023-04-05T08:56:50.340Z,7.91
2023-04-05T08:59:24.781Z,7.92
2023-04-05T09:01:59.851Z,7.90
2023-04-05T09:04:39.914Z,7.93
2023-04-05T09:07:14.302Z,8.09
2023-04-05T09:09:48.455Z,8.24
2023-04-05T09:12:24.041Z,8.17
2023-04-05T09:14:57.172Z,8.15
2023-04-05T09:17:32.463Z,8.15
2023-04-05T09:20:05.259Z,8.10
2023-04-05T09:22:46.683Z,8.00
2023-04-05T09:25:38.901Z,8.01
2023-04-05T09:28:12.306Z,7.94
2023-04-05T09:30:48.356Z,7.93
2023-04-05T09:33:23.109Z,7.88
2023-04-05T09:35:56.245Z,7.91
2023-04-05T09:38:45.345Z,8.09
2023-04-05T09:41:18.080Z,8.36
2023-04-05T09:43:50.794Z,8.51
2023-04-05T09:46:35.590Z,8.65
2023-04-05T09:49:10.295Z,8.84
2023-04-05T09:51:42.571Z,8.98
2023-04-05T09:54:17.454Z,8.99
2023-04-05T09:56:58.452Z,9.13
2023-04-05T09:59:32.079Z,9.25
2023-04-05T10:02:05.753Z,9.42
2023-04-05T10:04:43.816Z,9.53
2023-04-05T10:07:17.172Z,9.45
2023-04-05T10:09:50.669Z,9.46
2023-04-05T10:12:28.022Z,9.53
2023-04-05T10:15:01.156Z,9.70
2023-04-05T10:17:40.418Z,9.97
2023-04-05T10:20:18.087Z,10.24
2023-04-05T10:23:03.161Z,10.28
2023-04-05T10:25:51.024Z,10.26
2023-04-05T10:28:32.088Z,10.13
2023-04-05T10:31:26.977Z,9.98
2023-04-05T10:34:07.986Z,9.77
2023-04-05T10:36:48.184Z,9.65
2023-04-05T10:39:27.792Z,9.59
2023-04-05T10:42:06.293Z,9.47
2023-04-05T10:44:40.723Z,9.40
2023-04-05T10:47:18.135Z,9.36
2023-04-05T10:49:54.801Z,9.26
2023-04-05T10:52:28.915Z,9.15
2023-04-05T10:55:03.543Z,9.00
2023-04-05T10:57:37.346Z,9.04
2023-04-05T11:00:12.364Z,9.08
2023-04-05T11:02:45.085Z,9.16
2023-04-05T11:05:37.622Z,9.21
2023-04-05T11:08:12.804Z,9.23
2023-04-05T11:10:53.499Z,9.44
2023-04-05T11:13:50.839Z,9.74
2023-04-05T11:16:23.994Z,10.06
2023-04-05T11:18:56.960Z,9.95
2023-04-05T11:21:32.490Z,10.12
2023-04-05T11:24:12.056Z,10.29
2023-04-05T11:26:58.248Z,10.17
2023-04-05T11:29:50.069Z,10.31
2023-04-05T11:32:22.849Z,10.52
2023-04-05T11:35:06.352Z,10.84
2023-04-05T11:38:08.509Z,11.12
2023-04-05T11:40:43.582Z,11.32
2023-04-05T11:43:16.453Z,11.50
2023-04-05T11:45:49.667Z,11.61
2023-04-05T11:48:25.071Z,11.73
2023-04-05T11:50:58.494Z,11.91
2023-04-05T11:53:31.667Z,12.09
2023-04-05T11:56:12.812Z,12.20
2023-04-05T11:58:45.828Z,12.46
2023-04-05T12:01:21.028Z,12.63
2023-04-05T12:03:58.342Z,12.71
2023-04-05T12:06:30.996Z,12.93
2023-04-05T12:09:08.109Z,12.94
2023-04-05T12:11:41.401Z,12.84
2023-04-05T12:14:13.921Z,12.91
2023-04-05T12:16:53.174Z,12.93
2023-04-05T12:19:30.904Z,12.63
2023-04-05T12:22:03.515Z,12.31
2023-04-05T12:24:36.720Z,12.20
2023-04-05T12:27:09.598Z,12.03
2023-04-05T12:29:42.369Z,11.86
2023-04-05T12:32:16.408Z,11.59
2023-04-05T12:34:57.859Z,11.43
2023-04-05T12:37:30.900Z,11.46
2023-04-05T12:40:06.012Z,11.48
2023-04-05T12:42:39.306Z,11.64
2023-04-05T12:45:15.030Z,11.74
2023-04-05T12:48:01.472Z,11.93
2023-04-05T12:50:34.634Z,12.14
2023-04-05T12:53:09.940Z,12.20
2023-04-05T12:55:49.619Z,12.26
2023-04-05T12:58:22.768Z,12.14
2023-04-05T13:00:55.442Z,12.05
2023-04-05T13:03:29.373Z,11.97
2023-04-05T13:06:02.187Z,12.09
2023-04-05T13:08:34.596Z,12.31
2023-04-05T13:11:07.448Z,12.32
2023-04-05T13:13:39.940Z,12.38
2023-04-05T13:16:12.828Z,12.53
2023-04-05T13:18:45.058Z,12.63
2023-04-05T13:21:17.837Z,12.70
2023-04-05T13:23:50.390Z,12.84
2023-04-05T13:26:23.551Z,12.85
2023-04-05T13:28:56.138Z,12.95
2023-04-05T13:31:28.831Z,13.07
2023-04-05T13:34:01.205Z,13.24
2023-04-05T13:36:33.576Z,13.52
2023-04-05T13:39:06.215Z,13.61
2023-04-05T13:41:39.201Z,13.61
2023-04-05T13:44:11.693Z,13.44
2023-04-05T13:46:44.221Z,13.26
2023-04-05T13:49:17.101Z,12.94
2023-04-05T13:51:49.553Z,12.77
2023-04-05T13:54:22.222Z,12.56
2023-04-05T13:56:55.023Z,12.12
2023-04-05T13:59:27.504Z,12.00
2023-04-05T14:02:00.495Z,11.85
2023-04-05T14:04:33.161Z,11.75
2023-04-05T14:07:06.381Z,11.65
2023-04-05T14:09:38.783Z,11.47
2023-04-05T14:12:11.463Z,11.37
2023-04-05T14:14:44.169Z,11.28
2023-04-05T14:17:17.439Z,11.18
2023-04-05T14:19:50.219Z,11.16
2023-04-05T14:22:22.730Z,11.27
2023-04-05T14:24:55.481Z,11.31
2023-04-05T14:27:28.543Z,11.19
2023-04-05T14:30:01.065Z,11.15
2023-04-05T14:32:33.963Z,11.07
2023-04-05T14:35:07.192Z,11.07
2023-04-05T14:37:40.033Z,11.04
2023-04-05T14:40:13.781Z,11.10
2023-04-05T14:42:49.835Z,11.20
2023-04-05T14:45:23.436Z,11.18
2023-04-05T14:47:56.284Z,11.39
2023-04-05T14:50:32.412Z,11.47
2023-04-05T14:53:04.860Z,11.23
2023-04-05T14:55:39.549Z,11.16
2023-04-05T14:58:14.621Z,11.21
2023-04-05T15:00:49.153Z,11.02
2023-04-05T15:03:22.385Z,10.99
2023-04-05T15:05:55.833Z,11.12
2023-04-05T15:08:28.190Z,11.17
2023-04-05T15:11:01.628Z,11.29
2023-04-05T15:13:34.272Z,11.28
2023-04-05T15:16:07.348Z,11.30
2023-04-05T15:18:40.268Z,11.36
2023-04-05T15:21:12.760Z,11.31
2023-04-05T15:23:45.473Z,11.33
2023-04-05T15:26:18.083Z,11.27
2023-04-05T15:28:50.908Z,11.15
2023-04-05T15:31:23.358Z,11.22
2023-04-05T15:33:56.897Z,11.13
2023-04-05T15:36:30.266Z,11.11
2023-04-05T15:39:05.198Z,10.97
2023-04-05T15:41:37.884Z,10.89
2023-04-05T15:44:10.696Z,10.79
2023-04-05T15:46:43.647Z,10.77
2023-04-05T15:49:17.554Z,10.68
2023-04-05T15:51:51.019Z,10.73
2023-04-05T15:54:23.670Z,10.81
2023-04-05T15:56:56.963Z,10.82
2023-04-05T15:59:30.106Z,10.87
2023-04-05T16:02:02.693Z,10.85
2023-04-05T16:04:35.674Z,10.87
2023-04-05T16:07:09.118Z,10.88
2023-04-05T16:09:42.002Z,10.85
2023-04-05T16:12:15.086Z,10.97
2023-04-05T16:14:47.797Z,10.93
2023-04-05T16:17:20.176Z,11.00
2023-04-05T16:20:09.666Z,11.03
2023-04-05T16:22:42.477Z,11.05
2023-04-05T16:25:14.881Z,10.96
2023-04-05T16:27:47.805Z,11.08
2023-04-05T16:30:21.228Z,11.05
2023-04-05T16:32:54.655Z,11.06
2023-04-05T16:35:27.960Z,10.99
2023-04-05T16:38:00.853Z,11.03
2023-04-05T16:40:33.393Z,10.94
2023-04-05T16:43:05.797Z,10.94
2023-04-05T16:45:38.684Z,10.82
2023-04-05T16:48:11.495Z,10.64
2023-04-05T16:50:43.791Z,10.90
2023-04-05T16:53:16.285Z,10.91
2023-04-05T16:55:48.992Z,10.88
2023-04-05T16:58:21.632Z,10.81
2023-04-05T17:00:58.724Z,10.83
2023-04-05T17:03:32.147Z,10.84
2023-04-05T17:06:05.323Z,10.85
2023-04-05T17:08:37.951Z,10.75
2023-04-05T17:11:10.493Z,10.66
2023-04-05T17:13:45.127Z,10.56
2023-04-05T17:16:17.722Z,10.45
2023-04-05T17:18:50.480Z,10.30
2023-04-05T17:21:37.299Z,10.21
2023-04-05T17:24:11.015Z,10.13
2023-04-05T17:26:43.404Z,10.04
2023-04-05T17:29:17.786Z,9.95
2023-04-05T17:31:51.950Z,9.82
2023-04-05T17:34:25.155Z,9.72
2023-04-05T17:36:57.787Z,9.56
2023-04-05T17:39:30.390Z,9.41
2023-04-05T17:42:02.856Z,9.44
2023-04-05T17:44:35.636Z,9.36
2023-04-05T17:47:09.799Z,9.19
2023-04-05T17:49:42.617Z,9.09
2023-04-05T17:52:15.447Z,9.02
2023-04-05T17:54:48.055Z,8.99
2023-04-05T17:57:22.883Z,8.95
2023-04-05T17:59:57.484Z,8.89
2023-04-05T18:02:30.688Z,8.77
2023-04-05T18:05:03.596Z,8.76
2023-04-05T18:07:38.246Z,8.74
2023-04-05T18:10:12.417Z,8.67
2023-04-05T18:12:44.867Z,8.48
2023-04-05T18:15:18.459Z,8.49
2023-04-05T18:17:52.380Z,8.44
2023-04-05T18:20:24.996Z,8.40
2023-04-05T18:22:59.248Z,8.36
2023-04-05T18:25:32.224Z,8.26
2023-04-05T18:28:19.386Z,8.15
2023-04-05T18:30:54.991Z,8.12
2023-04-05T18:33:27.587Z,8.09
2023-04-05T18:36:00.269Z,8.03
2023-04-05T18:38:33.061Z,7.96
2023-04-05T18:41:07.168Z,7.90
2023-04-05T18:43:39.860Z,7.85
2023-04-05T18:46:18.406Z,7.80
2023-04-05T18:48:54.996Z,7.77
2023-04-05T18:51:28.681Z,7.71
2023-04-05T18:54:03.021Z,7.61
2023-04-05T18:56:35.548Z,7.58
2023-04-05T18:59:08.380Z,7.54
2023-04-05T19:01:41.607Z,7.47
2023-04-05T19:04:16.264Z,7.45
2023-04-05T19:06:48.580Z,7.42
2023-04-05T19:09:22.273Z,7.38
2023-04-05T19:11:56.638Z,7.35
2023-04-05T19:14:28.937Z,7.30
2023-04-05T19:17:01.823Z,7.15
2023-04-05T19:19:34.104Z,7.23
2023-04-05T19:22:06.804Z,7.21
2023-04-05T19:24:40.938Z,7.17
2023-04-05T19:27:13.565Z,7.15
2023-04-05T19:29:46.268Z,7.13
2023-04-05T19:32:19.237Z,7.10
2023-04-05T19:34:52.779Z,7.08
2023-04-05T19:37:24.959Z,6.98
2023-04-05T19:39:58.299Z,6.78
2023-04-05T19:42:31.070Z,6.83
2023-04-05T19:45:03.703Z,6.86
2023-04-05T19:47:43.287Z,6.82
2023-04-05T19:50:48.434Z,6.83
2023-04-05T19:53:39.598Z,6.88
2023-04-05T19:56:15.736Z,6.93
2023-04-05T19:58:50.475Z,6.98
2023-04-05T20:01:33.514Z,6.92
2023-04-05T20:04:14.355Z,7.01
2023-04-05T20:06:53.868Z,6.94
2023-04-05T20:09:29.385Z,6.95
2023-04-05T20:12:03.729Z,6.93
2023-04-05T20:14:43.044Z,6.96
2023-04-05T20:17:18.232Z,6.86
2023-04-05T20:20:00.150Z,6.97
2023-04-05T20:22:35.105Z,6.99
2023-04-05T20:25:28.311Z,6.92
2023-04-05T20:28:00.828Z,7.04
2023-04-05T20:30:34.428Z,6.97
2023-04-05T20:33:09.488Z,6.98
2023-04-05T20:35:42.117Z,6.95
2023-04-05T20:38:14.758Z,6.91
2023-04-05T20:40:46.968Z,6.96
2023-04-05T20:43:19.776Z,6.95
2023-04-05T20:45:53.204Z,6.94
2023-04-05T20:48:25.773Z,6.89
2023-04-05T20:51:00.256Z,6.87
2023-04-05T20:53:33.220Z,6.85
2023-04-05T20:56:06.525Z,6.82
2023-04-05T20:58:40.074Z,6.76
2023-04-05T21:01:12.655Z,6.73
2023-04-05T21:03:45.229Z,6.61
2023-04-05T21:06:18.072Z,6.67
2023-04-05T21:08:50.565Z,6.63
2023-04-05T21:11:22.884Z,6.60
2023-04-05T21:13:55.344Z,6.58
2023-04-05T21:16:27.744Z,6.56
2023-04-05T21:19:00.448Z,6.53
2023-04-05T21:21:32.893Z,6.52
2023-04-05T21:24:05.346Z,6.48
2023-04-05T21:26:38.254Z,6.47
2023-04-05T21:29:11.142Z,6.35
2023-04-05T21:31:43.764Z,6.39
2023-04-05T21:34:15.989Z,6.39
2023-04-05T21:38:27.262Z,6.41
2023-04-05T21:41:00.373Z,6.34
2023-04-05T21:43:33.116Z,6.33
2023-04-05T21:46:05.910Z,6.28
2023-04-05T21:48:38.571Z,6.24
2023-04-05T21:51:11.375Z,6.19
2023-04-05T21:53:43.841Z,6.13
2023-04-05T21:56:16.629Z,6.00
2023-04-05T21:58:49.261Z,5.99
2023-04-05T22:01:22.133Z,5.96
2023-04-05T22:04:18.595Z,5.90
2023-04-05T22:06:51.814Z,5.89
2023-04-05T22:09:24.948Z,5.86
2023-04-05T22:11:58.193Z,5.83
2023-04-05T22:14:30.897Z,5.71
2023-04-05T22:17:03.452Z,5.74
2023-04-05T22:19:36.410Z,5.72
2023-04-05T22:22:09.326Z,5.71
2023-04-05T22:24:41.793Z,5.67
2023-04-05T22:27:14.480Z,5.64
2023-04-05T22:29:48.639Z,5.61
2023-04-05T22:32:21.632Z,5.60
2023-04-05T22:34:54.719Z,5.53
2023-04-05T22:37:27.521Z,5.43
2023-04-05T22:40:00.226Z,5.53
2023-04-05T22:42:32.781Z,5.51
2023-04-05T22:45:07.416Z,5.48
2023-04-05T22:47:40.364Z,5.47
2023-04-05T22:50:13.558Z,5.49
2023-04-05T22:52:46.597Z,5.47
2023-04-05T22:55:19.628Z,5.44
2023-04-05T22:57:52.117Z,5.44
2023-04-05T23:00:25.150Z,5.44
2023-04-05T23:02:58.553Z,5.43
2023-04-05T23:05:31.091Z,5.41
2023-04-05T23:08:03.752Z,5.39
2023-04-05T23:10:36.370Z,5.38
2023-04-05T23:13:08.567Z,5.35
2023-04-05T23:15:41.173Z,5.35
2023-04-05T23:18:14.406Z,5.36
2023-04-05T23:20:46.813Z,5.27
2023-04-05T23:23:19.361Z,5.37
2023-04-05T23:25:52.279Z,5.28
2023-04-05T23:28:24.796Z,5.37
2023-04-05T23:30:57.602Z,5.36
2023-04-05T23:33:30.186Z,5.36
2023-04-05T23:36:03.496Z,5.34
2023-04-05T23:38:36.784Z,5.36
2023-04-05T23:41:09.122Z,5.35
2023-04-05T23:43:41.770Z,5.35
2023-04-05T23:46:14.201Z,5.35
2023-04-05T23:48:46.772Z,5.34
2023-04-05T23:51:19.073Z,5.28
2023-04-05T23:53:51.629Z,5.26
2023-04-05T23:56:24.381Z,5.23
2023-04-05T23:58:56.934Z,5.21
